sensor_id;sensor_type;location;lat;lon;timestamp;pressure;altitude;pressure_sealevel;temperature;humidity
51287;BME280;37364;46.974;18.916;2023-01-25T00:01:31;150376.22;;;0.09;100.00
51287;BME280;37364;46.974;18.916;2023-01-25T00:04:02;150376.22;;;0.09;100.00
51287;BME280;37364;46.974;18.916;2023-01-25T00:06:44;150371.09;;;0.07;100.00
51287;BME280;37364;46.974;18.916;2023-01-25T00:09:25;150365.94;;;0.05;100.00
51287;BME280;37364;46.974;18.916;2023-01-25T00:11:59;150373.63;;;0.08;100.00
51287;BME280;37364;46.974;18.916;2023-01-25T00:14:38;150359.53;;;0.02;100.00
51287;BME280;37364;46.974;18.916;2023-01-25T00:17:13;150368.50;;;0.06;100.00
51287;BME280;37364;46.974;18.916;2023-01-25T00:19:45;150360.81;;;0.03;100.00
51287;BME280;37364;46.974;18.916;2023-01-25T00:22:16;150355.69;;;0.01;100.00
51287;BME280;37364;46.974;18.916;2023-01-25T00:24:59;150356.94;;;0.01;100.00
51287;BME280;37364;46.974;18.916;2023-01-25T00:27:36;150356.94;;;0.01;100.00
51287;BME280;37364;46.974;18.916;2023-01-25T00:30:12;150354.41;;;0.00;100.00
51287;BME280;37364;46.974;18.916;2023-01-25T00:32:54;150359.53;;;0.02;100.00
51287;BME280;37364;46.974;18.916;2023-01-25T00:35:30;150371.09;;;0.07;100.00
51287;BME280;37364;46.974;18.916;2023-01-25T00:41:04;150389.06;;;0.14;100.00
51287;BME280;37364;46.974;18.916;2023-01-25T00:43:40;150403.16;;;0.19;100.00
51287;BME280;37364;46.974;18.916;2023-01-25T00:46:16;150405.75;;;0.21;100.00
51287;BME280;37364;46.974;18.916;2023-01-25T00:48:48;150405.75;;;0.21;100.00
51287;BME280;37364;46.974;18.916;2023-01-25T00:51:25;150416.03;;;0.25;100.00
51287;BME280;37364;46.974;18.916;2023-01-25T00:53:55;150419.91;;;0.26;100.00
51287;BME280;37364;46.974;18.916;2023-01-25T00:56:41;150419.91;;;0.26;100.00
51287;BME280;37364;46.974;18.916;2023-01-25T00:59:15;150435.31;;;0.32;100.00
51287;BME280;37364;46.974;18.916;2023-01-25T01:01:47;150434.03;;;0.32;100.00
51287;BME280;37364;46.974;18.916;2023-01-25T01:04:21;150422.44;;;0.27;100.00
51287;BME280;37364;46.974;18.916;2023-01-25T01:07:02;150407.03;;;0.21;100.00
51287;BME280;37364;46.974;18.916;2023-01-25T01:09:37;150392.88;;;0.15;100.00
51287;BME280;37364;46.974;18.916;2023-01-25T01:12:13;150376.22;;;0.09;100.00
51287;BME280;37364;46.974;18.916;2023-01-25T01:14:47;150363.34;;;0.04;100.00
51287;BME280;37364;46.974;18.916;2023-01-25T01:17:21;150360.81;;;0.03;100.00
51287;BME280;37364;46.974;18.916;2023-01-25T01:19:57;150359.53;;;0.02;100.00
51287;BME280;37364;46.974;18.916;2023-01-25T01:22:28;150351.81;;;-0.01;100.00
51287;BME280;37364;46.974;18.916;2023-01-25T01:25:08;150341.53;;;-0.05;100.00
51287;BME280;37364;46.974;18.916;2023-01-25T01:27:42;150340.28;;;-0.06;100.00
51287;BME280;37364;46.974;18.916;2023-01-25T01:30:17;150327.41;;;-0.11;100.00
51287;BME280;37364;46.974;18.916;2023-01-25T01:32:50;150312.00;;;-0.17;100.00
51287;BME280;37364;46.974;18.916;2023-01-25T01:35:28;150312.00;;;-0.17;100.00
51287;BME280;37364;46.974;18.916;2023-01-25T01:38:02;150299.16;;;-0.22;100.00
51287;BME280;37364;46.974;18.916;2023-01-25T01:40:52;150288.88;;;-0.26;100.00
51287;BME280;37364;46.974;18.916;2023-01-25T01:43:30;150278.59;;;-0.30;100.00
51287;BME280;37364;46.974;18.916;2023-01-25T01:46:14;150276.06;;;-0.31;100.00
51287;BME280;37364;46.974;18.916;2023-01-25T01:49:01;150260.63;;;-0.37;100.00
51287;BME280;37364;46.974;18.916;2023-01-25T01:51:45;150269.63;;;-0.34;100.00
51287;BME280;37364;46.974;18.916;2023-01-25T01:54:33;150265.75;;;-0.35;100.00
51287;BME280;37364;46.974;18.916;2023-01-25T01:57:16;150260.63;;;-0.37;100.00
51287;BME280;37364;46.974;18.916;2023-01-25T01:59:56;150255.47;;;-0.40;100.00
51287;BME280;37364;46.974;18.916;2023-01-25T02:02:40;150252.94;;;-0.41;100.00
51287;BME280;37364;46.974;18.916;2023-01-25T02:05:18;150252.94;;;-0.41;100.00
51287;BME280;37364;46.974;18.916;2023-01-25T02:07:53;150251.66;;;-0.41;100.00
51287;BME280;37364;46.974;18.916;2023-01-25T02:10:27;150243.94;;;-0.44;100.00
51287;BME280;37364;46.974;18.916;2023-01-25T02:13:01;150269.63;;;-0.34;100.00
51287;BME280;37364;46.974;18.916;2023-01-25T02:15:42;150276.06;;;-0.31;100.00
51287;BME280;37364;46.974;18.916;2023-01-25T02:18:18;150277.34;;;-0.31;100.00
51287;BME280;37364;46.974;18.916;2023-01-25T02:20:56;150283.75;;;-0.28;100.00
51287;BME280;37364;46.974;18.916;2023-01-25T02:23:35;150287.59;;;-0.27;100.00
51287;BME280;37364;46.974;18.916;2023-01-25T02:26:14;150308.13;;;-0.18;100.00
51287;BME280;37364;46.974;18.916;2023-01-25T02:28:51;150313.28;;;-0.16;100.00
51287;BME280;37364;46.974;18.916;2023-01-25T02:31:29;150324.81;;;-0.12;100.00
51287;BME280;37364;46.974;18.916;2023-01-25T02:34:06;150336.41;;;-0.07;100.00
51287;BME280;37364;46.974;18.916;2023-01-25T02:36:41;150351.81;;;-0.01;100.00
51287;BME280;37364;46.974;18.916;2023-01-25T02:39:20;150349.22;;;-0.02;100.00
51287;BME280;37364;46.974;18.916;2023-01-25T02:41:59;150363.34;;;0.04;100.00
51287;BME280;37364;46.974;18.916;2023-01-25T02:44:38;150371.09;;;0.07;100.00
51287;BME280;37364;46.974;18.916;2023-01-25T02:47:13;150376.22;;;0.09;100.00
51287;BME280;37364;46.974;18.916;2023-01-25T02:49:51;150381.34;;;0.11;100.00
51287;BME280;37364;46.974;18.916;2023-01-25T02:52:22;150385.22;;;0.12;100.00
51287;BME280;37364;46.974;18.916;2023-01-25T02:54:58;150396.75;;;0.17;100.00
51287;BME280;37364;46.974;18.916;2023-01-25T02:57:38;150408.31;;;0.22;100.00
51287;BME280;37364;46.974;18.916;2023-01-25T03:00:15;150408.31;;;0.22;100.00
51287;BME280;37364;46.974;18.916;2023-01-25T03:02:51;150414.75;;;0.24;100.00
51287;BME280;37364;46.974;18.916;2023-01-25T03:05:27;150414.75;;;0.24;100.00
51287;BME280;37364;46.974;18.916;2023-01-25T03:08:05;150425.03;;;0.28;100.00
51287;BME280;37364;46.974;18.916;2023-01-25T03:10:43;150419.91;;;0.26;100.00
51287;BME280;37364;46.974;18.916;2023-01-25T03:13:21;150409.63;;;0.22;100.00
51287;BME280;37364;46.974;18.916;2023-01-25T03:15:59;150418.63;;;0.26;100.00
51287;BME280;37364;46.974;18.916;2023-01-25T03:18:45;150430.16;;;0.30;100.00
51287;BME280;37364;46.974;18.916;2023-01-25T03:21:19;150435.31;;;0.32;100.00
51287;BME280;37364;46.974;18.916;2023-01-25T03:24:04;150435.31;;;0.32;100.00
51287;BME280;37364;46.974;18.916;2023-01-25T03:26:45;150439.16;;;0.34;100.00
51287;BME280;37364;46.974;18.916;2023-01-25T03:29:54;150443.03;;;0.35;100.00
51287;BME280;37364;46.974;18.916;2023-01-25T03:32:33;150439.16;;;0.34;100.00
51287;BME280;37364;46.974;18.916;2023-01-25T03:35:14;150464.84;;;0.44;100.00
51287;BME280;37364;46.974;18.916;2023-01-25T03:37:53;150472.59;;;0.47;100.00
51287;BME280;37364;46.974;18.916;2023-01-25T03:40:31;150490.53;;;0.54;100.00
51287;BME280;37364;46.974;18.916;2023-01-25T03:43:04;150497.00;;;0.57;100.00
51287;BME280;37364;46.974;18.916;2023-01-25T03:45:44;150507.25;;;0.61;100.00
51287;BME280;37364;46.974;18.916;2023-01-25T03:48:19;150497.00;;;0.57;100.00
51287;BME280;37364;46.974;18.916;2023-01-25T03:50:54;150512.41;;;0.63;100.00
51287;BME280;37364;46.974;18.916;2023-01-25T03:53:29;150490.53;;;0.54;100.00
51287;BME280;37364;46.974;18.916;2023-01-25T03:56:22;150511.09;;;0.63;100.00
51287;BME280;37364;46.974;18.916;2023-01-25T03:59:25;150502.13;;;0.59;100.00
51287;BME280;37364;46.974;18.916;2023-01-25T04:02:20;150491.84;;;0.55;100.00
51287;BME280;37364;46.974;18.916;2023-01-25T04:04:57;150494.41;;;0.56;100.00
51287;BME280;37364;46.974;18.916;2023-01-25T04:07:33;150491.84;;;0.55;100.00
51287;BME280;37364;46.974;18.916;2023-01-25T04:10:19;150497.00;;;0.57;100.00
51287;BME280;37364;46.974;18.916;2023-01-25T04:12:59;150499.53;;;0.58;100.00
51287;BME280;37364;46.974;18.916;2023-01-25T04:15:34;150505.94;;;0.61;100.00
51287;BME280;37364;46.974;18.916;2023-01-25T04:18:23;150518.81;;;0.66;100.00
51287;BME280;37364;46.974;18.916;2023-01-25T04:21:03;150512.41;;;0.63;100.00
51287;BME280;37364;46.974;18.916;2023-01-25T04:23:36;150507.25;;;0.61;100.00
51287;BME280;37364;46.974;18.916;2023-01-25T04:26:10;150491.84;;;0.55;100.00
51287;BME280;37364;46.974;18.916;2023-01-25T04:29:06;150502.13;;;0.59;100.00
51287;BME280;37364;46.974;18.916;2023-01-25T04:31:40;150518.81;;;0.66;100.00
51287;BME280;37364;46.974;18.916;2023-01-25T04:34:17;150516.22;;;0.65;100.00
51287;BME280;37364;46.974;18.916;2023-01-25T04:36:49;150502.13;;;0.59;100.00
51287;BME280;37364;46.974;18.916;2023-01-25T04:39:32;150522.69;;;0.67;100.00
51287;BME280;37364;46.974;18.916;2023-01-25T04:42:07;150520.09;;;0.66;100.00
51287;BME280;37364;46.974;18.916;2023-01-25T04:44:42;150509.81;;;0.62;100.00
51287;BME280;37364;46.974;18.916;2023-01-25T04:47:15;150508.53;;;0.62;100.00
51287;BME280;37364;46.974;18.916;2023-01-25T04:50:08;150502.13;;;0.59;100.00
51287;BME280;37364;46.974;18.916;2023-01-25T04:52:52;150509.81;;;0.62;100.00
51287;BME280;37364;46.974;18.916;2023-01-25T04:55:27;150518.81;;;0.66;100.00
51287;BME280;37364;46.974;18.916;2023-01-25T04:58:04;150505.94;;;0.61;100.00
51287;BME280;37364;46.974;18.916;2023-01-25T05:00:38;150481.53;;;0.51;100.00
51287;BME280;37364;46.974;18.916;2023-01-25T05:03:14;150504.69;;;0.60;100.00
51287;BME280;37364;46.974;18.916;2023-01-25T05:05:55;150481.53;;;0.51;100.00
51287;BME280;37364;46.974;18.916;2023-01-25T05:08:28;150494.41;;;0.56;100.00
51287;BME280;37364;46.974;18.916;2023-01-25T05:11:01;150507.25;;;0.61;100.00
51287;BME280;37364;46.974;18.916;2023-01-25T05:14:00;150485.41;;;0.52;100.00
51287;BME280;37364;46.974;18.916;2023-01-25T05:16:39;150485.41;;;0.52;100.00
51287;BME280;37364;46.974;18.916;2023-01-25T05:19:18;150500.81;;;0.58;100.00
51287;BME280;37364;46.974;18.916;2023-01-25T05:22:06;150500.81;;;0.58;100.00
51287;BME280;37364;46.974;18.916;2023-01-25T05:24:48;150508.53;;;0.62;100.00
51287;BME280;37364;46.974;18.916;2023-01-25T05:27:30;150512.41;;;0.63;100.00
51287;BME280;37364;46.974;18.916;2023-01-25T05:30:18;150532.97;;;0.71;100.00
51287;BME280;37364;46.974;18.916;2023-01-25T05:33:00;150532.97;;;0.71;100.00
51287;BME280;37364;46.974;18.916;2023-01-25T05:35:31;150518.81;;;0.66;100.00
51287;BME280;37364;46.974;18.916;2023-01-25T05:38:10;150526.53;;;0.69;100.00
51287;BME280;37364;46.974;18.916;2023-01-25T05:40:44;150509.81;;;0.62;100.00
51287;BME280;37364;46.974;18.916;2023-01-25T05:43:17;150513.69;;;0.64;100.00
51287;BME280;37364;46.974;18.916;2023-01-25T05:45:53;150539.38;;;0.74;100.00
51287;BME280;37364;46.974;18.916;2023-01-25T05:48:36;150532.97;;;0.71;100.00
51287;BME280;37364;46.974;18.916;2023-01-25T05:51:12;150536.81;;;0.73;100.00
51287;BME280;37364;46.974;18.916;2023-01-25T05:53:54;150536.81;;;0.73;100.00
51287;BME280;37364;46.974;18.916;2023-01-25T05:56:29;150540.63;;;0.74;100.00
51287;BME280;37364;46.974;18.916;2023-01-25T05:59:03;150513.69;;;0.64;100.00
51287;BME280;37364;46.974;18.916;2023-01-25T06:01:50;150520.09;;;0.66;100.00
51287;BME280;37364;46.974;18.916;2023-01-25T06:04:23;150514.94;;;0.64;100.00
51287;BME280;37364;46.974;18.916;2023-01-25T06:07:06;150520.09;;;0.66;100.00
51287;BME280;37364;46.974;18.916;2023-01-25T06:09:40;150530.38;;;0.70;100.00
51287;BME280;37364;46.974;18.916;2023-01-25T06:12:19;150523.94;;;0.68;100.00
51287;BME280;37364;46.974;18.916;2023-01-25T06:14:52;150521.41;;;0.67;100.00
51287;BME280;37364;46.974;18.916;2023-01-25T06:17:26;150538.09;;;0.73;100.00
51287;BME280;37364;46.974;18.916;2023-01-25T06:20:28;150523.94;;;0.68;100.00
51287;BME280;37364;46.974;18.916;2023-01-25T06:23:07;150527.81;;;0.69;100.00
51287;BME280;37364;46.974;18.916;2023-01-25T06:25:42;150530.38;;;0.70;100.00
51287;BME280;37364;46.974;18.916;2023-01-25T06:28:15;150521.41;;;0.67;100.00
51287;BME280;37364;46.974;18.916;2023-01-25T06:30:50;150530.38;;;0.70;100.00
51287;BME280;37364;46.974;18.916;2023-01-25T06:33:30;150543.22;;;0.75;100.00
51287;BME280;37364;46.974;18.916;2023-01-25T06:36:06;150536.81;;;0.73;100.00
51287;BME280;37364;46.974;18.916;2023-01-25T06:38:42;150556.09;;;0.81;100.00
51287;BME280;37364;46.974;18.916;2023-01-25T06:41:28;150552.25;;;0.79;100.00
51287;BME280;37364;46.974;18.916;2023-01-25T06:44:02;150550.97;;;0.78;100.00
51287;BME280;37364;46.974;18.916;2023-01-25T06:46:34;150544.50;;;0.76;100.00
51287;BME280;37364;46.974;18.916;2023-01-25T06:49:13;150548.38;;;0.77;100.00
51287;BME280;37364;46.974;18.916;2023-01-25T06:51:47;150535.50;;;0.72;100.00
51287;BME280;37364;46.974;18.916;2023-01-25T06:54:21;150550.97;;;0.78;100.00
51287;BME280;37364;46.974;18.916;2023-01-25T06:56:58;150540.63;;;0.74;100.00
51287;BME280;37364;46.974;18.916;2023-01-25T06:59:34;150548.38;;;0.77;100.00
51287;BME280;37364;46.974;18.916;2023-01-25T07:02:14;150562.50;;;0.83;100.00
51287;BME280;37364;46.974;18.916;2023-01-25T07:04:51;150570.19;;;0.86;100.00
51287;BME280;37364;46.974;18.916;2023-01-25T07:07:27;150548.38;;;0.77;100.00
51287;BME280;37364;46.974;18.916;2023-01-25T07:09:59;150531.69;;;0.71;100.00
51287;BME280;37364;46.974;18.916;2023-01-25T07:12:41;150549.66;;;0.78;100.00
51287;BME280;37364;46.974;18.916;2023-01-25T07:15:18;150576.66;;;0.89;100.00
51287;BME280;37364;46.974;18.916;2023-01-25T07:17:48;150562.50;;;0.83;100.00
51287;BME280;37364;46.974;18.916;2023-01-25T07:20:21;150584.34;;;0.92;100.00
51287;BME280;37364;46.974;18.916;2023-01-25T07:22:53;150581.78;;;0.91;100.00
51287;BME280;37364;46.974;18.916;2023-01-25T07:25:29;150570.19;;;0.86;100.00
51287;BME280;37364;46.974;18.916;2023-01-25T07:28:11;150594.63;;;0.96;100.00
51287;BME280;37364;46.974;18.916;2023-01-25T07:30:48;150593.34;;;0.95;100.00
51287;BME280;37364;46.974;18.916;2023-01-25T07:33:20;150601.09;;;0.98;100.00
51287;BME280;37364;46.974;18.916;2023-01-25T07:35:58;150588.22;;;0.93;100.00
51287;BME280;37364;46.974;18.916;2023-01-25T07:38:33;150586.94;;;0.93;100.00
51287;BME280;37364;46.974;18.916;2023-01-25T07:41:10;150581.78;;;0.91;100.00
51287;BME280;37364;46.974;18.916;2023-01-25T07:43:51;150589.47;;;0.94;100.00
51287;BME280;37364;46.974;18.916;2023-01-25T07:46:38;150599.75;;;0.98;100.00
51287;BME280;37364;46.974;18.916;2023-01-25T07:49:15;150615.22;;;1.04;100.00
51287;BME280;37364;46.974;18.916;2023-01-25T07:51:57;150606.22;;;1.01;100.00
51287;BME280;37364;46.974;18.916;2023-01-25T07:54:50;150620.38;;;1.06;100.00
51287;BME280;37364;46.974;18.916;2023-01-25T07:57:47;150634.50;;;1.12;100.00
51287;BME280;37364;46.974;18.916;2023-01-25T08:00:26;150638.31;;;1.13;100.00
51287;BME280;37364;46.974;18.916;2023-01-25T08:03:02;150634.50;;;1.12;100.00
51287;BME280;37364;46.974;18.916;2023-01-25T08:05:43;150660.22;;;1.22;100.00
51287;BME280;37364;46.974;18.916;2023-01-25T08:08:14;150660.22;;;1.22;100.00
51287;BME280;37364;46.974;18.916;2023-01-25T08:10:52;150665.34;;;1.24;100.00
51287;BME280;37364;46.974;18.916;2023-01-25T08:13:25;150666.63;;;1.25;100.00
51287;BME280;37364;46.974;18.916;2023-01-25T08:16:11;150676.91;;;1.29;100.00
51287;BME280;37364;46.974;18.916;2023-01-25T08:18:47;150683.38;;;1.31;100.00
51287;BME280;37364;46.974;18.916;2023-01-25T08:21:25;150700.06;;;1.38;100.00
51287;BME280;37364;46.974;18.916;2023-01-25T08:24:01;150729.63;;;1.50;100.00
51287;BME280;37364;46.974;18.916;2023-01-25T08:26:35;150728.34;;;1.49;100.00
51287;BME280;37364;46.974;18.916;2023-01-25T08:29:06;150733.50;;;1.51;100.00
51287;BME280;37364;46.974;18.916;2023-01-25T08:31:45;150715.47;;;1.44;100.00
51287;BME280;37364;46.974;18.916;2023-01-25T08:34:21;150754.06;;;1.60;100.00
51287;BME280;37364;46.974;18.916;2023-01-25T08:36:54;150782.38;;;1.71;100.00
51287;BME280;37364;46.974;18.916;2023-01-25T08:39:27;150774.63;;;1.68;100.00
51287;BME280;37364;46.974;18.916;2023-01-25T08:42:00;150760.47;;;1.62;100.00
51287;BME280;37364;46.974;18.916;2023-01-25T08:44:31;150783.66;;;1.71;100.00
51287;BME280;37364;46.974;18.916;2023-01-25T08:47:11;150781.06;;;1.70;100.00
51287;BME280;37364;46.974;18.916;2023-01-25T08:49:49;150773.38;;;1.67;100.00
51287;BME280;37364;46.974;18.916;2023-01-25T08:52:22;150783.66;;;1.71;100.00
51287;BME280;37364;46.974;18.916;2023-01-25T08:55:09;150784.91;;;1.72;100.00
51287;BME280;37364;46.974;18.916;2023-01-25T08:57:42;150811.94;;;1.83;100.00
51287;BME280;37364;46.974;18.916;2023-01-25T09:00:27;150826.09;;;1.88;100.00
51287;BME280;37364;46.974;18.916;2023-01-25T09:03:05;150862.09;;;2.03;100.00
51287;BME280;37364;46.974;18.916;2023-01-25T09:05:43;150822.25;;;1.87;100.00
51287;BME280;37364;46.974;18.916;2023-01-25T09:08:16;150815.78;;;1.84;100.00
51287;BME280;37364;46.974;18.916;2023-01-25T09:10:51;150859.50;;;2.02;100.00
51287;BME280;37364;46.974;18.916;2023-01-25T09:13:27;150864.66;;;2.04;100.00
51287;BME280;37364;46.974;18.916;2023-01-25T09:16:00;150901.97;;;2.18;100.00
51287;BME280;37364;46.974;18.916;2023-01-25T09:18:47;150948.28;;;2.37;100.00
51287;BME280;37364;46.974;18.916;2023-01-25T09:21:25;150984.34;;;2.51;100.00
51287;BME280;37364;46.974;18.916;2023-01-25T09:23:59;150944.47;;;2.35;100.00
51287;BME280;37364;46.974;18.916;2023-01-25T09:26:36;150956.03;;;2.40;100.00
51287;BME280;37364;46.974;18.916;2023-01-25T09:29:22;150983.03;;;2.51;100.00
51287;BME280;37364;46.974;18.916;2023-01-25T09:31:56;150935.44;;;2.32;100.00
51287;BME280;37364;46.974;18.916;2023-01-25T09:34:59;150905.84;;;2.20;100.00
51287;BME280;37364;46.974;18.916;2023-01-25T09:37:35;150992.03;;;2.54;100.00
51287;BME280;37364;46.974;18.916;2023-01-25T09:40:18;150998.50;;;2.57;100.00
51287;BME280;37364;46.974;18.916;2023-01-25T09:43:00;150943.13;;;2.35;100.00
51287;BME280;37364;46.974;18.916;2023-01-25T09:45:35;151025.50;;;2.68;100.00
51287;BME280;37364;46.974;18.916;2023-01-25T09:48:18;151065.41;;;2.84;100.00
51287;BME280;37364;46.974;18.916;2023-01-25T09:51:11;151030.66;;;2.70;100.00
51287;BME280;37364;46.974;18.916;2023-01-25T09:53:49;151055.13;;;2.80;100.00
51287;BME280;37364;46.974;18.916;2023-01-25T09:56:28;151056.41;;;2.80;100.00
51287;BME280;37364;46.974;18.916;2023-01-25T09:59:09;151035.81;;;2.72;100.00
51287;BME280;37364;46.974;18.916;2023-01-25T10:01:54;151101.50;;;2.98;100.00
51287;BME280;37364;46.974;18.916;2023-01-25T10:04:32;151017.81;;;2.65;100.00
51287;BME280;37364;46.974;18.916;2023-01-25T10:07:18;151038.41;;;2.73;100.00
51287;BME280;37364;46.974;18.916;2023-01-25T10:09:56;151038.41;;;2.73;100.00
51287;BME280;37364;46.974;18.916;2023-01-25T10:12:37;151006.19;;;2.60;100.00
51287;BME280;37364;46.974;18.916;2023-01-25T10:15:17;151055.13;;;2.80;100.00
51287;BME280;37364;46.974;18.916;2023-01-25T10:17:57;151091.16;;;2.94;100.00
51287;BME280;37364;46.974;18.916;2023-01-25T10:20:37;151046.09;;;2.76;100.00
51287;BME280;37364;46.974;18.916;2023-01-25T10:26:28;151048.69;;;2.77;100.00
51287;BME280;37364;46.974;18.916;2023-01-25T10:29:12;151034.53;;;2.71;100.00
51287;BME280;37364;46.974;18.916;2023-01-25T10:31:51;151044.81;;;2.75;100.00
51287;BME280;37364;46.974;18.916;2023-01-25T10:34:28;151068.00;;;2.85;100.00
51287;BME280;37364;46.974;18.916;2023-01-25T10:37:34;151079.56;;;2.89;100.00
51287;BME280;37364;46.974;18.916;2023-01-25T10:40:18;151128.50;;;3.09;100.00
51287;BME280;37364;46.974;18.916;2023-01-25T10:43:02;151089.88;;;2.93;100.00
51287;BME280;37364;46.974;18.916;2023-01-25T10:45:35;151086.00;;;2.92;100.00
51287;BME280;37364;46.974;18.916;2023-01-25T10:48:18;151075.69;;;2.88;100.00
51287;BME280;37364;46.974;18.916;2023-01-25T10:50:56;151101.50;;;2.98;100.00
51287;BME280;37364;46.974;18.916;2023-01-25T10:53:36;151147.81;;;3.16;100.00
51287;BME280;37364;46.974;18.916;2023-01-25T10:56:25;151136.25;;;3.12;100.00
51287;BME280;37364;46.974;18.916;2023-01-25T10:59:23;151168.41;;;3.25;100.00
51287;BME280;37364;46.974;18.916;2023-01-25T11:05:31;151100.16;;;2.97;100.00
51287;BME280;37364;46.974;18.916;2023-01-25T11:08:23;151131.09;;;3.10;100.00
51287;BME280;37364;46.974;18.916;2023-01-25T11:10:57;151152.97;;;3.19;100.00
51287;BME280;37364;46.974;18.916;2023-01-25T11:13:29;151149.09;;;3.17;100.00
51287;BME280;37364;46.974;18.916;2023-01-25T11:16:31;151181.31;;;3.30;100.00
51287;BME280;37364;46.974;18.916;2023-01-25T11:19:24;151168.41;;;3.25;100.00
51287;BME280;37364;46.974;18.916;2023-01-25T11:21:59;151156.84;;;3.20;100.00
51287;BME280;37364;46.974;18.916;2023-01-25T11:24:36;151155.56;;;3.20;100.00
51287;BME280;37364;46.974;18.916;2023-01-25T11:27:17;151174.84;;;3.27;100.00
51287;BME280;37364;46.974;18.916;2023-01-25T11:30:07;151143.94;;;3.15;100.00
51287;BME280;37364;46.974;18.916;2023-01-25T11:32:45;151137.53;;;3.12;100.00
51287;BME280;37364;46.974;18.916;2023-01-25T11:35:28;151128.50;;;3.09;100.00
51287;BME280;37364;46.974;18.916;2023-01-25T11:38:08;151150.41;;;3.17;100.00
51287;BME280;37364;46.974;18.916;2023-01-25T11:40:47;151133.66;;;3.11;100.00
51287;BME280;37364;46.974;18.916;2023-01-25T11:43:42;151146.53;;;3.16;100.00
51287;BME280;37364;46.974;18.916;2023-01-25T11:46:35;151138.78;;;3.13;100.00
51287;BME280;37364;46.974;18.916;2023-01-25T11:49:38;151120.75;;;3.06;100.00
51287;BME280;37364;46.974;18.916;2023-01-25T11:52:25;151131.09;;;3.10;100.00
51287;BME280;37364;46.974;18.916;2023-01-25T11:55:18;151146.53;;;3.16;100.00
51287;BME280;37364;46.974;18.916;2023-01-25T11:58:14;151158.13;;;3.21;100.00
51287;BME280;37364;46.974;18.916;2023-01-25T12:01:05;151173.56;;;3.27;100.00
51287;BME280;37364;46.974;18.916;2023-01-25T12:04:10;151196.75;;;3.36;100.00
51287;BME280;37364;46.974;18.916;2023-01-25T12:07:01;151178.72;;;3.29;100.00
51287;BME280;37364;46.974;18.916;2023-01-25T12:10:13;151149.09;;;3.17;100.00
51287;BME280;37364;46.974;18.916;2023-01-25T12:12:58;151151.69;;;3.18;100.00
51287;BME280;37364;46.974;18.916;2023-01-25T12:15:51;151115.59;;;3.04;100.00
51287;BME280;37364;46.974;18.916;2023-01-25T12:21:47;151125.94;;;3.08;100.00
51287;BME280;37364;46.974;18.916;2023-01-25T12:24:41;151163.25;;;3.23;100.00
51287;BME280;37364;46.974;18.916;2023-01-25T12:27:26;151134.91;;;3.11;100.00
51287;BME280;37364;46.974;18.916;2023-01-25T12:30:19;151124.63;;;3.07;100.00
51287;BME280;37364;46.974;18.916;2023-01-25T12:32:58;151125.94;;;3.08;100.00
51287;BME280;37364;46.974;18.916;2023-01-25T12:35:45;151068.00;;;2.85;100.00
51287;BME280;37364;46.974;18.916;2023-01-25T12:38:25;151078.31;;;2.89;100.00
51287;BME280;37364;46.974;18.916;2023-01-25T12:41:17;151105.31;;;3.00;100.00
51287;BME280;37364;46.974;18.916;2023-01-25T12:43:56;151100.16;;;2.97;100.00
51287;BME280;37364;46.974;18.916;2023-01-25T12:46:38;151114.34;;;3.03;100.00
51287;BME280;37364;46.974;18.916;2023-01-25T12:49:32;151069.28;;;2.85;100.00
51287;BME280;37364;46.974;18.916;2023-01-25T12:52:18;151065.41;;;2.84;100.00
51287;BME280;37364;46.974;18.916;2023-01-25T12:54:52;151105.31;;;3.00;100.00
51287;BME280;37364;46.974;18.916;2023-01-25T12:57:35;151073.16;;;2.87;100.00
51287;BME280;37364;46.974;18.916;2023-01-25T13:00:21;151035.81;;;2.72;100.00
51287;BME280;37364;46.974;18.916;2023-01-25T13:03:13;151056.41;;;2.80;100.00
51287;BME280;37364;46.974;18.916;2023-01-25T13:05:57;151040.94;;;2.74;100.00
51287;BME280;37364;46.974;18.916;2023-01-25T13:08:45;151051.25;;;2.78;100.00
51287;BME280;37364;46.974;18.916;2023-01-25T13:11:24;151060.25;;;2.82;100.00
51287;BME280;37364;46.974;18.916;2023-01-25T13:14:21;151057.72;;;2.81;100.00
51287;BME280;37364;46.974;18.916;2023-01-25T13:17:29;151037.09;;;2.72;100.00
51287;BME280;37364;46.974;18.916;2023-01-25T13:23:29;151071.88;;;2.86;100.00
51287;BME280;37364;46.974;18.916;2023-01-25T13:29:46;151034.53;;;2.71;100.00
51287;BME280;37364;46.974;18.916;2023-01-25T13:35:42;151048.69;;;2.77;100.00
51287;BME280;37364;46.974;18.916;2023-01-25T13:38:34;151019.09;;;2.65;100.00
51287;BME280;37364;46.974;18.916;2023-01-25T13:41:16;151056.41;;;2.80;100.00
51287;BME280;37364;46.974;18.916;2023-01-25T13:44:10;151068.00;;;2.85;100.00
51287;BME280;37364;46.974;18.916;2023-01-25T13:47:09;151044.81;;;2.75;100.00
51287;BME280;37364;46.974;18.916;2023-01-25T13:49:54;151021.66;;;2.66;100.00
51287;BME280;37364;46.974;18.916;2023-01-25T13:52:29;151040.94;;;2.74;100.00
51287;BME280;37364;46.974;18.916;2023-01-25T13:55:16;151049.97;;;2.77;100.00
51287;BME280;37364;46.974;18.916;2023-01-25T13:57:46;151062.88;;;2.83;100.00
51287;BME280;37364;46.974;18.916;2023-01-25T14:00:30;151079.56;;;2.89;100.00
51287;BME280;37364;46.974;18.916;2023-01-25T14:03:16;151046.09;;;2.76;100.00
51287;BME280;37364;46.974;18.916;2023-01-25T14:05:50;151047.41;;;2.76;100.00
51287;BME280;37364;46.974;18.916;2023-01-25T14:08:25;151048.69;;;2.77;100.00